createdAt,value
2022-07-27T00:01:07.554Z,97808.16
2022-07-27T00:03:35.232Z,97807.34
2022-07-27T00:06:02.810Z,97815.75
2022-07-27T00:08:30.314Z,97813.63
2022-07-27T00:10:57.910Z,97817.69
2022-07-27T00:13:25.464Z,97818.22
2022-07-27T00:15:53.074Z,97820.13
2022-07-27T00:18:20.600Z,97817.69
2022-07-27T00:20:48.180Z,97815.53
2022-07-27T00:23:15.665Z,97820.16
2022-07-27T00:25:43.181Z,97818.53
2022-07-27T00:28:10.825Z,97815.59
2022-07-27T00:30:38.469Z,97821.78
2022-07-27T00:33:06.444Z,97812.88
2022-07-27T00:35:35.766Z,97821.28
2022-07-27T00:38:03.542Z,97818.84
2022-07-27T00:40:31.835Z,97817.25
2022-07-27T00:42:59.584Z,97811.59
2022-07-27T00:45:27.104Z,97825.09
2022-07-27T00:47:55.179Z,97823.78
2022-07-27T00:50:23.345Z,97831.91
2022-07-27T00:52:51.774Z,97838.16
2022-07-27T00:55:19.556Z,97843.31
2022-07-27T00:57:58.316Z,97841.13
2022-07-27T01:00:28.843Z,97843.00
2022-07-27T01:02:57.353Z,97843.53
2022-07-27T01:05:35.820Z,97853.78
2022-07-27T01:08:07.055Z,97845.66
2022-07-27T01:10:35.763Z,97843.50
2022-07-27T01:13:03.743Z,97849.41
2022-07-27T01:15:37.626Z,97838.66
2022-07-27T01:18:11.778Z,97841.06
2022-07-27T01:20:42.799Z,97837.84
2022-07-27T01:23:11.205Z,97842.91
2022-07-27T01:25:41.204Z,97838.66
2022-07-27T01:28:08.858Z,97838.34
2022-07-27T01:30:36.358Z,97836.75
2022-07-27T01:33:06.126Z,97836.72
2022-07-27T01:35:34.928Z,97841.31
2022-07-27T01:38:03.389Z,97838.34
2022-07-27T01:40:31.058Z,97835.13
2022-07-27T01:42:58.665Z,97843.19
2022-07-27T01:45:26.291Z,97841.03
2022-07-27T01:47:53.933Z,97839.41
2022-07-27T01:50:21.587Z,97839.13
2022-07-27T01:52:48.998Z,97841.03
2022-07-27T01:55:16.534Z,97842.09
2022-07-27T01:57:44.305Z,97843.19
2022-07-27T02:00:12.447Z,97844.53
2022-07-27T02:02:40.736Z,97842.13
2022-07-27T02:05:12.089Z,97844.84
2022-07-27T02:07:41.429Z,97841.59
2022-07-27T02:10:10.257Z,97848.59
2022-07-27T02:12:38.314Z,97851.03
2022-07-27T02:15:09.053Z,97840.53
2022-07-27T02:17:45.010Z,97834.34
2022-07-27T02:20:14.803Z,97836.78
2022-07-27T02:22:43.257Z,97830.59
2022-07-27T02:25:12.445Z,97832.47
2022-07-27T02:27:42.147Z,97828.72
2022-07-27T02:30:11.604Z,97827.94
2022-07-27T02:32:40.979Z,97826.56
2022-07-27T02:35:19.457Z,97834.09
2022-07-27T02:37:48.967Z,97837.03
2022-07-27T02:40:17.881Z,97848.63
2022-07-27T02:42:47.113Z,97841.09
2022-07-27T02:45:15.457Z,97853.47
2022-07-27T02:47:44.057Z,97843.81
2022-07-27T02:50:11.820Z,97836.53
2022-07-27T02:52:40.035Z,97847.03
2022-07-27T02:55:08.679Z,97843.78
2022-07-27T02:57:38.091Z,97836.53
2022-07-27T03:00:07.953Z,97827.63
2022-07-27T03:02:36.776Z,97838.13
2022-07-27T03:05:09.473Z,97839.47
2022-07-27T03:07:37.705Z,97841.34
2022-07-27T03:10:06.037Z,97827.34
2022-07-27T03:12:33.679Z,97826.25
2022-07-27T03:15:01.162Z,97822.75
2022-07-27T03:17:28.721Z,97818.19
2022-07-27T03:19:56.221Z,97818.47
2022-07-27T03:22:23.816Z,97821.13
2022-07-27T03:24:51.295Z,97832.41
2022-07-27T03:27:18.887Z,97833.22
2022-07-27T03:29:46.381Z,97834.28
2022-07-27T03:32:13.906Z,97829.19
2022-07-27T03:34:41.453Z,97827.06
2022-07-27T03:37:09.030Z,97822.97
2022-07-27T03:39:36.557Z,97828.94
2022-07-27T03:42:04.471Z,97830.81
2022-07-27T03:44:32.121Z,97830.25
2022-07-27T03:46:59.886Z,97829.66
2022-07-27T03:49:27.487Z,97827.97
2022-07-27T03:51:55.095Z,97838.19
2022-07-27T03:54:22.611Z,97840.06
2022-07-27T03:56:50.226Z,97846.19
2022-07-27T03:59:17.668Z,97845.16
2022-07-27T04:01:46.194Z,97848.41
2022-07-27T04:04:14.311Z,97847.63
2022-07-27T04:06:41.835Z,97853.56
2022-07-27T04:09:09.299Z,97846.31
2022-07-27T04:11:43.744Z,97854.91
2022-07-27T04:14:19.145Z,97866.13
2022-07-27T04:16:47.438Z,97868.88
2022-07-27T04:19:15.813Z,97866.78
2022-07-27T04:21:43.565Z,97876.75
2022-07-27T04:24:11.255Z,97877.03
2022-07-27T04:26:38.907Z,97877.03
2022-07-27T04:29:06.460Z,97871.38
2022-07-27T04:31:33.956Z,97880.56
2022-07-27T04:34:01.555Z,97879.75
2022-07-27T04:36:29.149Z,97871.69
2022-07-27T04:38:56.719Z,97877.78
2022-07-27T04:41:24.146Z,97885.59
2022-07-27T04:43:59.123Z,97883.38
2022-07-27T04:46:29.886Z,97884.22
2022-07-27T04:48:58.226Z,97896.31
2022-07-27T04:51:25.917Z,97897.91
2022-07-27T04:53:58.393Z,97900.88
2022-07-27T04:56:27.618Z,97897.28
2022-07-27T04:58:56.289Z,97892.38
2022-07-27T05:01:25.597Z,97893.41
2022-07-27T05:03:54.418Z,97897.91
2022-07-27T05:06:22.084Z,97891.22
2022-07-27T05:08:49.578Z,97891.09
2022-07-27T05:11:18.370Z,97891.09
2022-07-27T05:13:45.906Z,97895.16
2022-07-27T05:16:13.418Z,97902.59
2022-07-27T05:18:41.320Z,97912.16
2022-07-27T05:21:09.826Z,97916.22
2022-07-27T05:23:37.478Z,97921.91
2022-07-27T05:26:05.122Z,97923.28
2022-07-27T05:28:33.948Z,97928.66
2022-07-27T05:31:01.435Z,97932.66
2022-07-27T05:33:29.145Z,97931.81
2022-07-27T05:35:57.249Z,97940.09
2022-07-27T05:38:24.950Z,97933.28
2022-07-27T05:40:53.542Z,97931.22
2022-07-27T05:43:21.280Z,97935.25
2022-07-27T05:45:48.845Z,97941.53
2022-07-27T05:48:16.505Z,97944.94
2022-07-27T05:50:44.001Z,97943.56
2022-07-27T05:53:11.610Z,97939.59
2022-07-27T05:55:39.113Z,97948.50
2022-07-27T05:58:29.944Z,97949.41
2022-07-27T06:00:58.132Z,97950.28
2022-07-27T06:03:26.433Z,97935.41
2022-07-27T06:06:14.111Z,97946.72
2022-07-27T06:08:41.707Z,97949.47
2022-07-27T06:11:09.296Z,97958.41
2022-07-27T06:13:37.529Z,97952.50
2022-07-27T06:16:10.649Z,97951.06
2022-07-27T06:18:38.310Z,97956.41
2022-07-27T06:21:06.140Z,97963.78
2022-07-27T06:23:33.848Z,97975.66
2022-07-27T06:26:01.569Z,97974.13
2022-07-27T06:28:29.029Z,97974.88
2022-07-27T06:31:35.631Z,97974.28
2022-07-27T06:34:04.210Z,97971.41
2022-07-27T06:36:42.518Z,97973.22
2022-07-27T06:39:10.576Z,97972.50
2022-07-27T06:41:38.376Z,97987.72
2022-07-27T06:44:06.019Z,97976.06
2022-07-27T06:46:59.253Z,97987.28
2022-07-27T06:49:26.908Z,97989.78
2022-07-27T06:51:54.500Z,97980.69
2022-07-27T06:54:22.399Z,97982.47
2022-07-27T06:56:49.945Z,97974.84
2022-07-27T06:59:17.614Z,97977.31
2022-07-27T07:01:48.800Z,97972.69
2022-07-27T07:04:17.400Z,97976.19
2022-07-27T07:06:50.816Z,97971.66
2022-07-27T07:09:18.388Z,97975.22
2022-07-27T07:11:45.908Z,97977.78
2022-07-27T07:14:13.389Z,97977.22
2022-07-27T07:16:41.304Z,97970.00
2022-07-27T07:19:09.339Z,97969.50
2022-07-27T07:21:37.108Z,97977.59
2022-07-27T07:24:04.975Z,97982.41
2022-07-27T07:26:32.989Z,97979.81
2022-07-27T07:29:00.518Z,97981.97
2022-07-27T07:31:28.301Z,97982.53
2022-07-27T07:33:55.871Z,97988.19
2022-07-27T07:36:23.416Z,97983.91
2022-07-27T07:38:50.900Z,97988.44
2022-07-27T07:41:18.460Z,97980.56
2022-07-27T07:43:45.920Z,97984.28
2022-07-27T07:46:13.489Z,97984.28
2022-07-27T07:48:43.579Z,97985.38
2022-07-27T07:51:11.496Z,97978.72
2022-07-27T07:53:41.717Z,97977.19
2022-07-27T07:56:09.629Z,97991.28
2022-07-27T07:58:37.341Z,97998.91
2022-07-27T08:01:04.888Z,97988.41
2022-07-27T08:03:32.332Z,97983.56
2022-07-27T08:05:59.916Z,97987.66
2022-07-27T08:08:30.309Z,97992.28
2022-07-27T08:10:57.858Z,97989.84
2022-07-27T08:13:25.328Z,98004.41
2022-07-27T08:15:53.289Z,97997.63
2022-07-27T08:18:21.409Z,97999.47
2022-07-27T08:20:49.515Z,98009.22
2022-07-27T08:23:17.316Z,98006.56
2022-07-27T08:25:44.883Z,98009.81
2022-07-27T08:28:12.391Z,98008.47
2022-07-27T08:30:40.134Z,98008.22
2022-07-27T08:33:07.727Z,98001.19
2022-07-27T08:35:35.773Z,98004.72
2022-07-27T08:38:06.229Z,97999.03
2022-07-27T08:40:44.119Z,98010.63
2022-07-27T08:43:24.990Z,98009.81
2022-07-27T08:45:58.918Z,98000.63
2022-07-27T08:48:28.344Z,98002.47
2022-07-27T08:50:56.279Z,98007.06
2022-07-27T08:53:24.004Z,98003.78
2022-07-27T08:55:51.847Z,98003.03
2022-07-27T08:58:19.510Z,98001.63
2022-07-27T09:00:50.289Z,98001.16
2022-07-27T09:03:21.651Z,97995.25
2022-07-27T09:05:52.574Z,98000.94
2022-07-27T09:08:25.823Z,98007.13
2022-07-27T09:10:55.785Z,98003.59
2022-07-27T09:13:27.657Z,98008.97
2022-07-27T09:16:23.577Z,98010.78
2022-07-27T09:19:00.596Z,98011.31
2022-07-27T09:21:28.698Z,98018.75
2022-07-27T09:24:18.010Z,98021.00
2022-07-27T09:27:03.296Z,98024.25
2022-07-27T09:29:35.549Z,98012.22
2022-07-27T09:32:14.952Z,98016.81
2022-07-27T09:34:44.013Z,98011.72
2022-07-27T09:37:12.549Z,98017.41
2022-07-27T09:39:40.172Z,98018.47
2022-07-27T09:42:47.832Z,98009.81
2022-07-27T09:45:04.202Z,98017.13
2022-07-27T09:47:32.114Z,98019.03
2022-07-27T09:50:20.734Z,98019.81
2022-07-27T09:52:48.437Z,98015.50
2022-07-27T09:55:20.457Z,98017.34
2022-07-27T09:57:56.735Z,98007.94
2022-07-27T10:00:25.496Z,98017.88
2022-07-27T10:02:54.204Z,98012.94
2022-07-27T10:05:23.004Z,98013.28
2022-07-27T10:07:52.478Z,98015.13
2022-07-27T10:10:20.919Z,98021.03
2022-07-27T10:12:54.621Z,98017.94
2022-07-27T10:15:24.642Z,98019.94
2022-07-27T10:18:01.844Z,98019.97
2022-07-27T10:20:31.931Z,98019.03
2022-07-27T10:22:59.916Z,98028.88
2022-07-27T10:25:32.401Z,98028.44
2022-07-27T10:28:16.596Z,98035.44
2022-07-27T10:30:47.252Z,98036.25
2022-07-27T10:34:03.983Z,98029.25
2022-07-27T10:36:33.433Z,98039.22
2022-07-27T10:39:09.766Z,98039.75
2022-07-27T10:41:41.682Z,98035.44
2022-07-27T10:44:15.488Z,98043.53
2022-07-27T10:46:50.969Z,98044.06
2022-07-27T10:49:20.412Z,98044.06
2022-07-27T10:51:48.988Z,98034.09
2022-07-27T10:54:34.853Z,98030.31
2022-07-27T10:57:05.256Z,98037.06
2022-07-27T11:00:12.197Z,98033.03
2022-07-27T11:02:42.689Z,98031.63
2022-07-27T11:08:35.616Z,98027.69
2022-07-27T11:10:50.442Z,98030.31
2022-07-27T11:13:23.014Z,98018.69
2022-07-27T11:16:25.724Z,98015.69
2022-07-27T11:19:04.967Z,98021.06
2022-07-27T11:21:39.698Z,98021.59
2022-07-27T11:24:17.608Z,98020.75
2022-07-27T11:26:51.470Z,98020.31
2022-07-27T11:29:22.009Z,98019.72
2022-07-27T11:31:58.975Z,98027.25
2022-07-27T11:34:36.872Z,98025.59
2022-07-27T11:37:14.303Z,98015.53
2022-07-27T11:42:39.958Z,98011.03
2022-07-27T11:45:08.152Z,98017.50
2022-07-27T11:47:37.115Z,98020.56
2022-07-27T11:50:09.337Z,98015.69
2022-07-27T11:52:36.973Z,98016.66
2022-07-27T11:55:04.905Z,98015.75
2022-07-27T11:57:34.000Z,98009.69
2022-07-27T12:00:02.355Z,98011.97
2022-07-27T12:02:49.046Z,98006.97
2022-07-27T12:05:16.706Z,98004.06
2022-07-27T12:07:44.758Z,98004.81
2022-07-27T12:10:13.559Z,98006.91
2022-07-27T12:12:41.374Z,98001.00
2022-07-27T12:18:06.155Z,97993.22
2022-07-27T12:20:36.057Z,98001.47
2022-07-27T12:23:06.843Z,97999.63
2022-07-27T12:25:35.711Z,97994.81
2022-07-27T12:28:04.686Z,97996.03
2022-07-27T12:30:36.515Z,97992.88
2022-07-27T12:33:06.941Z,97991.91
2022-07-27T12:35:46.641Z,97980.00
2022-07-27T12:38:14.713Z,97980.59
2022-07-27T12:41:00.615Z,97976.69
2022-07-27T12:43:29.702Z,97972.78
2022-07-27T12:45:57.842Z,97968.41
2022-07-27T12:48:27.644Z,97969.19
2022-07-27T12:51:04.432Z,97962.75
2022-07-27T12:53:33.182Z,97959.09
2022-07-27T12:56:04.875Z,97954.25
2022-07-27T12:58:32.977Z,97959.16
2022-07-27T13:01:00.959Z,97955.72
2022-07-27T13:03:28.581Z,97950.75
2022-07-27T13:05:56.036Z,97952.66
2022-07-27T13:08:23.766Z,97953.94
2022-07-27T13:10:54.254Z,97952.50
2022-07-27T13:13:24.956Z,97959.84
2022-07-27T13:15:52.650Z,97959.38
2022-07-27T13:18:23.718Z,97958.59
2022-07-27T13:20:52.262Z,97954.31
2022-07-27T13:23:20.442Z,97945.66
2022-07-27T13:25:48.036Z,97944.16
2022-07-27T13:28:15.491Z,97949.69
2022-07-27T13:30:43.136Z,97953.84
2022-07-27T13:33:10.888Z,97947.03
2022-07-27T13:35:38.453Z,97946.81
2022-07-27T13:38:05.943Z,97955.59
2022-07-27T13:40:33.522Z,97962.50
2022-07-27T13:43:01.027Z,97951.72
2022-07-27T13:45:28.723Z,97952.22
2022-07-27T13:48:09.881Z,97958.94
2022-07-27T13:50:37.464Z,97950.69
2022-07-27T13:53:05.017Z,97953.72
2022-07-27T13:55:32.501Z,97954.56
2022-07-27T13:58:00.101Z,97954.38
2022-07-27T14:00:27.589Z,97950.88
2022-07-27T14:02:55.190Z,97945.56
2022-07-27T14:05:22.773Z,97948.34
2022-07-27T14:07:53.171Z,97945.06
2022-07-27T14:14:34.123Z,97957.50
2022-07-27T14:17:01.610Z,97953.97
2022-07-27T14:19:32.655Z,97947.59
2022-07-27T14:22:00.174Z,97951.94
2022-07-27T14:24:27.709Z,97943.94
2022-07-27T14:26:57.313Z,97944.22
2022-07-27T14:29:24.919Z,97950.34
2022-07-27T14:31:52.452Z,97951.50
2022-07-27T14:34:19.952Z,97946.06
2022-07-27T14:36:47.503Z,97945.84
2022-07-27T14:39:15.479Z,97950.97
2022-07-27T14:41:44.495Z,97944.97
2022-07-27T14:44:12.158Z,97951.63
2022-07-27T14:46:39.751Z,97944.31
2022-07-27T14:49:08.697Z,97952.72
2022-07-27T14:51:36.709Z,97947.56
2022-07-27T14:54:04.757Z,97939.31
2022-07-27T14:56:32.231Z,97938.63
2022-07-27T14:58:59.797Z,97936.25
2022-07-27T15:01:27.361Z,97934.69
2022-07-27T15:03:56.553Z,97933.88
2022-07-27T15:06:24.156Z,97931.31
2022-07-27T15:08:51.715Z,97929.94
2022-07-27T15:11:19.472Z,97929.25
2022-07-27T15:13:47.154Z,97929.44
2022-07-27T15:16:14.812Z,97932.84
2022-07-27T15:18:42.568Z,97931.00
2022-07-27T15:21:14.113Z,97922.31
2022-07-27T15:23:43.662Z,97928.44
2022-07-27T15:26:12.726Z,97931.78
2022-07-27T15:28:42.473Z,97928.56
2022-07-27T15:31:10.382Z,97931.56
2022-07-27T15:33:38.051Z,97922.72
2022-07-27T15:36:05.853Z,97939.34
2022-07-27T15:38:33.413Z,97935.06
2022-07-27T15:41:01.163Z,97940.53
2022-07-27T15:43:28.598Z,97932.16
2022-07-27T15:45:56.149Z,97932.00
2022-07-27T15:48:23.742Z,97934.31
2022-07-27T15:50:53.892Z,97936.94
2022-07-27T15:53:22.812Z,97933.97
2022-07-27T15:55:52.551Z,97929.44
2022-07-27T15:58:21.838Z,97932.56
2022-07-27T16:00:55.975Z,97931.38
2022-07-27T16:03:26.248Z,97934.91
2022-07-27T16:05:54.503Z,97933.59
2022-07-27T16:08:22.493Z,97933.75
2022-07-27T16:10:50.403Z,97931.84
2022-07-27T16:13:17.991Z,97926.03
2022-07-27T16:16:04.375Z,97938.78
2022-07-27T16:18:36.807Z,97937.47
2022-07-27T16:21:07.321Z,97932.22
2022-07-27T16:23:34.914Z,97936.03
2022-07-27T16:26:05.106Z,97932.13
2022-07-27T16:28:40.055Z,97930.09
2022-07-27T16:31:10.536Z,97925.94
2022-07-27T16:33:38.778Z,97920.28
2022-07-27T16:36:08.549Z,97922.16
2022-07-27T16:38:37.842Z,97924.63
2022-07-27T16:41:09.662Z,97921.94
2022-07-27T16:43:39.131Z,97914.47
2022-07-27T16:46:08.790Z,97919.03
2022-07-27T16:48:41.769Z,97918.97
2022-07-27T16:51:15.581Z,97920.56
2022-07-27T16:53:45.791Z,97914.78
2022-07-27T16:56:14.737Z,97925.59
2022-07-27T16:58:43.577Z,97914.63
2022-07-27T17:01:21.936Z,97917.06
2022-07-27T17:03:54.075Z,97919.56
2022-07-27T17:06:21.880Z,97921.16
2022-07-27T17:08:49.411Z,97911.06
2022-07-27T17:11:21.456Z,97920.22
2022-07-27T17:13:50.651Z,97916.34
2022-07-27T17:16:18.825Z,97913.41
2022-07-27T17:18:46.481Z,97927.59
2022-07-27T17:21:14.056Z,97925.81
2022-07-27T17:23:42.647Z,97921.69
2022-07-27T17:26:12.814Z,97922.28
2022-07-27T17:28:40.967Z,97916.16
2022-07-27T17:31:12.782Z,97920.19
2022-07-27T17:33:41.432Z,97919.66
2022-07-27T17:36:14.590Z,97918.94
2022-07-27T17:38:43.653Z,97921.16
2022-07-27T17:41:12.413Z,97920.16
2022-07-27T17:43:40.464Z,97921.31
2022-07-27T17:46:10.187Z,97928.38
2022-07-27T17:48:38.905Z,97913.56
2022-07-27T17:51:08.351Z,97921.19
2022-07-27T17:53:36.711Z,97916.09
2022-07-27T17:56:05.058Z,97924.06
2022-07-27T17:58:32.638Z,97924.91
2022-07-27T18:01:00.429Z,97919.03
2022-07-27T18:03:28.158Z,97924.19
2022-07-27T18:05:55.726Z,97914.28
2022-07-27T18:08:23.492Z,97927.34
2022-07-27T18:10:51.729Z,97924.41
2022-07-27T18:13:20.078Z,97931.19
2022-07-27T18:15:47.752Z,97935.00
2022-07-27T18:18:21.426Z,97936.41
2022-07-27T18:20:52.487Z,97931.34
2022-07-27T18:23:21.990Z,97924.91
2022-07-27T18:25:51.730Z,97932.75
2022-07-27T18:28:19.316Z,97928.75
2022-07-27T18:30:48.279Z,97934.69
2022-07-27T18:33:17.332Z,97926.34
2022-07-27T18:35:45.993Z,97935.03
2022-07-27T18:38:14.486Z,97927.81
2022-07-27T18:40:46.867Z,97931.06
2022-07-27T18:43:16.866Z,97927.81
2022-07-27T18:45:44.765Z,97929.19
2022-07-27T18:48:12.592Z,97933.25
2022-07-27T18:50:41.141Z,97938.38
2022-07-27T18:53:09.272Z,97948.38
2022-07-27T18:55:37.622Z,97940.84
2022-07-27T18:58:05.690Z,97944.88
2022-07-27T19:00:34.082Z,97946.78
2022-07-27T19:03:02.971Z,97954.03
2022-07-27T19:05:41.516Z,97962.38
2022-07-27T19:08:13.222Z,97969.09
2022-07-27T19:10:42.991Z,97974.22
2022-07-27T19:13:11.981Z,97986.84
2022-07-27T19:15:40.457Z,97991.66
2022-07-27T19:18:09.369Z,97999.72
2022-07-27T19:20:37.890Z,98008.09
2022-07-27T19:23:06.441Z,98009.13
2022-07-27T19:25:34.634Z,98009.13
2022-07-27T19:28:04.203Z,98016.91
2022-07-27T19:30:32.170Z,98028.47
2022-07-27T19:33:00.094Z,98021.44
2022-07-27T19:35:29.131Z,98027.34
2022-07-27T19:37:57.092Z,98030.00
2022-07-27T19:40:43.996Z,98032.13
2022-07-27T19:43:15.361Z,98023.22
2022-07-27T19:45:43.752Z,98029.63
2022-07-27T19:48:11.898Z,98030.41
2022-07-27T19:50:39.811Z,98028.75
2022-07-27T19:53:08.648Z,98030.06
2022-07-27T19:55:36.706Z,98041.63
2022-07-27T19:58:04.420Z,98036.75
2022-07-27T20:00:32.263Z,98043.47
2022-07-27T20:02:59.879Z,98046.94
2022-07-27T20:05:27.736Z,98053.88
2022-07-27T20:07:55.387Z,98043.41
2022-07-27T20:10:23.337Z,98048.22
2022-07-27T20:12:51.466Z,98043.09
2022-07-27T20:15:19.157Z,98039.03
2022-07-27T20:17:50.531Z,98045.22
2022-07-27T20:20:19.813Z,98043.53
2022-07-27T20:22:47.768Z,98040.28
2022-07-27T20:25:15.476Z,98033.56
2022-07-27T20:27:43.291Z,98039.19
2022-07-27T20:30:11.964Z,98038.94
2022-07-27T20:32:39.566Z,98046.19
2022-07-27T20:35:07.432Z,98044.81
2022-07-27T20:37:35.076Z,98049.66
2022-07-27T20:40:05.446Z,98055.53
2022-07-27T20:42:33.307Z,98046.63
2022-07-27T20:45:00.836Z,98050.34
2022-07-27T20:47:34.342Z,98054.41
2022-07-27T20:50:02.491Z,98051.94
2022-07-27T20:52:29.976Z,98056.22
2022-07-27T20:54:57.980Z,98051.34
2022-07-27T20:57:25.832Z,98047.25
2022-07-27T20:59:53.546Z,98050.19
2022-07-27T21:02:21.137Z,98046.94
2022-07-27T21:04:48.706Z,98047.50
2022-07-27T21:07:16.242Z,98053.63
2022-07-27T21:09:43.786Z,98054.13
2022-07-27T21:12:11.236Z,98058.13
2022-07-27T21:14:38.761Z,98057.34
2022-07-27T21:17:06.510Z,98065.09
2022-07-27T21:19:34.166Z,98064.53
2022-07-27T21:22:01.643Z,98068.28
2022-07-27T21:24:30.068Z,98066.34
2022-07-27T21:27:00.981Z,98067.69
2022-07-27T21:29:32.430Z,98066.50
2022-07-27T21:31:59.910Z,98073.41
2022-07-27T21:34:27.709Z,98076.06
2022-07-27T21:36:55.166Z,98069.03
2022-07-27T21:39:23.121Z,98075.94
2022-07-27T21:41:50.849Z,98077.25
2022-07-27T21:44:18.601Z,98078.00
2022-07-27T21:46:46.109Z,98077.69
2022-07-27T21:49:14.038Z,98077.03
2022-07-27T21:51:41.659Z,98083.66
2022-07-27T21:54:09.340Z,98086.75
2022-07-27T21:56:41.068Z,98089.03
2022-07-27T21:59:10.167Z,98097.75
2022-07-27T22:01:37.708Z,98093.88
2022-07-27T22:04:06.326Z,98097.31
2022-07-27T22:06:34.005Z,98096.72
2022-07-27T22:09:01.563Z,98106.38
2022-07-27T22:11:29.030Z,98103.97
2022-07-27T22:13:56.719Z,98099.63
2022-07-27T22:16:24.390Z,98107.69
2022-07-27T22:18:52.049Z,98111.13
2022-07-27T22:21:19.541Z,98105.59
2022-07-27T22:23:49.305Z,98107.53
2022-07-27T22:26:17.571Z,98107.94
2022-07-27T22:28:45.114Z,98117.75
2022-07-27T22:31:21.533Z,98122.53
2022-07-27T22:33:50.980Z,98121.50
2022-07-27T22:36:18.786Z,98117.75
2022-07-27T22:38:46.531Z,98116.69
2022-07-27T22:41:14.244Z,98117.28
2022-07-27T22:43:41.786Z,98120.44
2022-07-27T22:46:10.152Z,98116.97
2022-07-27T22:48:38.541Z,98118.25
2022-07-27T22:51:06.077Z,98118.72
2022-07-27T22:53:34.199Z,98120.84
2022-07-27T22:56:01.674Z,98122.97
2022-07-27T22:58:29.194Z,98124.00
2022-07-27T23:00:59.639Z,98124.47
2022-07-27T23:03:27.750Z,98130.91
2022-07-27T23:05:55.408Z,98134.63
2022-07-27T23:08:23.184Z,98126.25
2022-07-27T23:10:50.771Z,98130.25
2022-07-27T23:13:20.018Z,98123.72
2022-07-27T23:15:48.069Z,98123.97
2022-07-27T23:18:17.005Z,98125.84
2022-07-27T23:20:45.151Z,98125.84
2022-07-27T23:23:16.106Z,98132.00
2022-07-27T23:25:45.763Z,98123.41
2022-07-27T23:28:15.503Z,98122.09
2022-07-27T23:30:43.176Z,98125.47
2022-07-27T23:33:10.960Z,98110.44
2022-07-27T23:35:38.420Z,98115.47
2022-07-27T23:38:06.073Z,98121.91
2022-07-27T23:40:33.666Z,98120.25
2022-07-27T23:43:01.162Z,98121.78
2022-07-27T23:45:28.741Z,98114.56
2022-07-27T23:47:56.547Z,98109.94
2022-07-27T23:50:24.172Z,98107.38
2022-07-27T23:52:52.314Z,98113.69
2022-07-27T23:55:19.960Z,98118.38
2022-07-27T23:57:47.538Z,98115.94
